createdAt,value
2022-10-12T00:01:19.482Z,22.80
2022-10-12T00:03:46.814Z,23.10
2022-10-12T00:06:19.575Z,21.52
2022-10-12T00:08:47.226Z,22.98
2022-10-12T00:11:16.303Z,21.42
2022-10-12T00:13:43.679Z,24.55
2022-10-12T00:16:17.930Z,24.10
2022-10-12T00:18:45.280Z,23.27
2022-10-12T00:21:14.265Z,23.30
2022-10-12T00:23:41.736Z,25.33
2022-10-12T00:26:11.408Z,24.58
2022-10-12T00:28:38.859Z,24.95
2022-10-12T00:31:11.374Z,24.25
2022-10-12T00:33:39.124Z,24.38
2022-10-12T00:36:13.769Z,25.00
2022-10-12T00:38:41.030Z,24.63
2022-10-12T00:41:08.404Z,23.65
2022-10-12T00:43:39.102Z,24.83
2022-10-12T00:46:27.551Z,25.50
2022-10-12T00:49:05.658Z,24.52
2022-10-12T00:51:32.936Z,25.15
2022-10-12T00:54:05.450Z,23.48
2022-10-12T00:56:34.468Z,23.92
2022-10-12T00:59:04.429Z,25.65
2022-10-12T01:01:32.789Z,24.67
2022-10-12T01:04:00.388Z,25.13
2022-10-12T01:06:27.681Z,24.27
2022-10-12T01:08:54.987Z,24.88
2022-10-12T01:11:22.287Z,23.42
2022-10-12T01:13:49.577Z,24.52
2022-10-12T01:16:24.776Z,24.58
2022-10-12T01:18:52.014Z,23.88
2022-10-12T01:21:22.768Z,24.10
2022-10-12T01:23:55.844Z,24.17
2022-10-12T01:26:49.275Z,22.27
2022-10-12T01:29:37.811Z,21.92
2022-10-12T01:32:30.960Z,24.40
2022-10-12T01:35:14.275Z,25.65
2022-10-12T01:37:56.682Z,23.88
2022-10-12T01:40:29.949Z,24.48
2022-10-12T01:42:58.271Z,24.40
2022-10-12T01:45:25.542Z,24.15
2022-10-12T01:47:53.510Z,26.40
2022-10-12T01:50:22.045Z,25.48
2022-10-12T01:53:27.662Z,27.35
2022-10-12T01:55:59.612Z,27.75
2022-10-12T01:58:51.371Z,28.00
2022-10-12T02:01:38.865Z,29.73
2022-10-12T02:04:28.019Z,29.85
2022-10-12T02:07:27.197Z,31.02
2022-10-12T02:09:54.917Z,29.55
2022-10-12T02:12:22.532Z,29.08
2022-10-12T02:14:55.320Z,30.73
2022-10-12T02:17:23.022Z,30.40
2022-10-12T02:20:01.146Z,32.72
2022-10-12T02:22:38.606Z,33.40
2022-10-12T02:25:11.177Z,33.10
2022-10-12T02:27:42.442Z,32.67
2022-10-12T02:30:10.682Z,31.83
2022-10-12T02:32:39.030Z,33.10
2022-10-12T02:35:15.285Z,31.38
2022-10-12T02:38:04.356Z,31.60
2022-10-12T02:40:37.715Z,33.70
2022-10-12T02:43:21.749Z,33.33
2022-10-12T02:45:49.073Z,33.33
2022-10-12T02:48:19.993Z,35.05
2022-10-12T02:50:47.368Z,34.75
2022-10-12T02:53:14.660Z,32.95
2022-10-12T02:55:56.504Z,33.88
2022-10-12T02:58:23.810Z,32.42
2022-10-12T03:00:51.283Z,34.47
2022-10-12T03:03:18.617Z,34.58
2022-10-12T03:05:46.105Z,37.45
2022-10-12T03:08:13.396Z,34.40
2022-10-12T03:10:40.655Z,35.15
2022-10-12T03:13:07.937Z,34.60
2022-10-12T03:15:35.223Z,36.28
2022-10-12T03:18:02.590Z,37.10
2022-10-12T03:20:29.907Z,34.92
2022-10-12T03:22:57.212Z,34.72
2022-10-12T03:25:24.531Z,35.17
2022-10-12T03:27:51.850Z,36.72
2022-10-12T03:30:19.126Z,36.03
2022-10-12T03:32:46.421Z,36.17
2022-10-12T03:35:13.708Z,35.92
2022-10-12T03:37:41.202Z,34.05
2022-10-12T03:40:09.591Z,37.58
2022-10-12T03:42:36.866Z,37.95
2022-10-12T03:45:04.463Z,36.28
2022-10-12T03:47:31.730Z,35.40
2022-10-12T03:49:59.026Z,35.30
2022-10-12T03:52:26.352Z,33.63
2022-10-12T03:54:53.634Z,36.90
2022-10-12T03:57:20.919Z,36.47
2022-10-12T03:59:48.194Z,37.30
2022-10-12T04:02:17.099Z,35.95
2022-10-12T04:04:44.687Z,36.70
2022-10-12T04:07:12.092Z,36.03
2022-10-12T04:09:39.446Z,36.58
2022-10-12T04:12:06.857Z,37.92
2022-10-12T04:14:34.126Z,35.90
2022-10-12T04:17:01.460Z,37.85
2022-10-12T04:19:28.751Z,38.25
2022-10-12T04:21:56.059Z,38.90
2022-10-12T04:24:23.376Z,38.10
2022-10-12T04:26:50.703Z,36.30
2022-10-12T04:29:17.968Z,38.63
2022-10-12T04:31:45.271Z,37.33
2022-10-12T04:34:12.652Z,39.70
2022-10-12T04:36:39.920Z,39.40
2022-10-12T04:39:07.283Z,38.63
2022-10-12T04:41:34.548Z,39.05
2022-10-12T04:44:01.951Z,40.75
2022-10-12T04:46:29.230Z,40.30
2022-10-12T04:48:56.611Z,36.38
2022-10-12T04:51:24.766Z,39.47
2022-10-12T04:53:52.168Z,38.42
2022-10-12T04:56:19.631Z,38.50
2022-10-12T04:58:46.908Z,38.75
2022-10-12T05:01:14.258Z,35.97
2022-10-12T05:03:42.241Z,38.20
2022-10-12T05:06:09.762Z,39.88
2022-10-12T05:08:37.035Z,38.65
2022-10-12T05:11:04.407Z,37.47
2022-10-12T05:13:31.698Z,39.20
2022-10-12T05:15:59.040Z,39.33
2022-10-12T05:18:26.380Z,36.90
2022-10-12T05:20:57.016Z,38.05
2022-10-12T05:23:24.567Z,37.60
2022-10-12T05:25:52.023Z,41.33
2022-10-12T05:28:19.344Z,36.67
2022-10-12T05:30:50.422Z,38.90
2022-10-12T05:33:18.007Z,37.55
2022-10-12T05:35:48.303Z,38.17
2022-10-12T05:38:17.784Z,35.95
2022-10-12T05:40:45.135Z,37.28
2022-10-12T05:43:12.451Z,36.50
2022-10-12T05:45:39.759Z,34.47
2022-10-12T05:48:07.067Z,37.05
2022-10-12T05:50:34.438Z,37.78
2022-10-12T05:53:01.761Z,35.97
2022-10-12T05:55:29.079Z,39.05
2022-10-12T05:57:56.430Z,36.72
2022-10-12T06:00:23.736Z,37.88
2022-10-12T06:02:51.887Z,39.15
2022-10-12T06:05:19.238Z,37.75
2022-10-12T06:07:46.577Z,38.83
2022-10-12T06:10:13.931Z,39.10
2022-10-12T06:12:41.401Z,37.13
2022-10-12T06:15:09.453Z,38.05
2022-10-12T06:17:36.786Z,39.75
2022-10-12T06:20:04.424Z,40.55
2022-10-12T06:22:31.744Z,39.60
2022-10-12T06:24:59.130Z,41.13
2022-10-12T06:27:26.478Z,38.90
2022-10-12T06:29:53.766Z,38.28
2022-10-12T06:32:21.155Z,39.90
2022-10-12T06:34:48.429Z,40.85
2022-10-12T06:37:36.987Z,38.45
2022-10-12T06:40:03.197Z,41.55
2022-10-12T06:42:30.515Z,41.10
2022-10-12T06:44:57.805Z,41.15
2022-10-12T06:47:25.122Z,39.95
2022-10-12T06:49:52.389Z,43.58
2022-10-12T06:52:19.700Z,40.65
2022-10-12T06:54:47.027Z,40.35
2022-10-12T06:57:14.341Z,38.45
2022-10-12T06:59:41.605Z,41.97
2022-10-12T07:02:11.939Z,41.42
2022-10-12T07:04:39.226Z,40.15
2022-10-12T07:07:06.512Z,36.70
2022-10-12T07:09:33.791Z,35.35
2022-10-12T07:12:01.100Z,37.13
2022-10-12T07:14:28.393Z,35.83
2022-10-12T07:16:55.749Z,38.33
2022-10-12T07:19:23.086Z,36.17
2022-10-12T07:21:50.417Z,35.55
2022-10-12T07:24:17.688Z,36.08
2022-10-12T07:26:45.037Z,33.05
2022-10-12T07:29:12.314Z,31.60
2022-10-12T07:31:39.635Z,29.05
2022-10-12T07:34:07.016Z,28.60
2022-10-12T07:36:57.493Z,27.63
2022-10-12T07:39:24.910Z,29.20
2022-10-12T07:41:52.530Z,32.03
2022-10-12T07:44:20.051Z,30.42
2022-10-12T07:46:47.347Z,32.88
2022-10-12T07:49:15.017Z,27.48
2022-10-12T07:51:42.480Z,30.42
2022-10-12T07:54:09.831Z,29.45
2022-10-12T07:56:37.165Z,31.27
2022-10-12T07:59:04.483Z,30.55
2022-10-12T08:01:33.101Z,33.50
2022-10-12T08:04:02.013Z,33.22
2022-10-12T08:06:31.930Z,33.45
2022-10-12T08:09:00.017Z,35.72
2022-10-12T08:11:27.476Z,35.10
2022-10-12T08:13:56.047Z,33.50
2022-10-12T08:16:23.914Z,33.60
2022-10-12T08:18:51.466Z,34.08
2022-10-12T08:21:18.864Z,34.10
2022-10-12T08:23:46.756Z,32.78
2022-10-12T08:26:14.693Z,33.70
2022-10-12T08:28:42.215Z,32.80
2022-10-12T08:31:14.409Z,33.55
2022-10-12T08:33:41.770Z,35.03
2022-10-12T08:36:09.408Z,33.63
2022-10-12T08:38:38.960Z,32.38
2022-10-12T08:41:23.047Z,32.22
2022-10-12T08:44:15.155Z,33.88
2022-10-12T08:46:42.441Z,32.83
2022-10-12T08:49:20.031Z,33.25
2022-10-12T08:51:55.359Z,32.92
2022-10-12T08:54:23.527Z,32.63
2022-10-12T08:56:53.595Z,31.55
2022-10-12T08:59:20.994Z,31.08
2022-10-12T09:02:15.984Z,32.08
2022-10-12T09:05:03.862Z,29.27
2022-10-12T09:07:54.694Z,33.53
2022-10-12T09:10:28.079Z,33.58
2022-10-12T09:13:11.445Z,28.60
2022-10-12T09:15:59.819Z,29.38
2022-10-12T09:18:40.825Z,29.75
2022-10-12T09:21:11.606Z,29.80
2022-10-12T09:23:39.874Z,28.60
2022-10-12T09:26:17.909Z,27.52
2022-10-12T09:29:20.674Z,28.13
2022-10-12T09:32:14.019Z,27.55
2022-10-12T09:34:44.064Z,28.20
2022-10-12T09:37:37.964Z,28.50
2022-10-12T09:40:06.233Z,27.42
2022-10-12T09:42:34.197Z,26.92
2022-10-12T09:45:19.022Z,25.17
2022-10-12T09:48:10.419Z,26.42
2022-10-12T09:50:44.125Z,27.02
2022-10-12T09:53:28.687Z,25.05
2022-10-12T09:56:16.027Z,23.88
2022-10-12T09:58:50.829Z,23.02
2022-10-12T10:01:26.241Z,24.63
2022-10-12T10:04:23.729Z,23.63
2022-10-12T10:06:51.135Z,23.92
2022-10-12T10:09:30.141Z,21.48
2022-10-12T10:11:58.643Z,20.15
2022-10-12T10:14:25.974Z,20.58
2022-10-12T10:16:54.734Z,21.27
2022-10-12T10:19:25.062Z,21.70
2022-10-12T10:21:53.333Z,21.35
2022-10-12T10:24:29.115Z,21.80
2022-10-12T10:27:00.311Z,19.92
2022-10-12T10:29:40.761Z,21.05
2022-10-12T10:32:14.963Z,19.25
2022-10-12T10:34:42.440Z,18.80
2022-10-12T10:37:18.751Z,18.00
2022-10-12T10:39:50.116Z,17.25
2022-10-12T10:42:28.611Z,17.73
2022-10-12T10:45:03.851Z,21.17
2022-10-12T10:47:32.015Z,21.10
2022-10-12T10:50:01.418Z,18.73
2022-10-12T10:52:30.307Z,16.48
2022-10-12T10:55:14.930Z,15.02
2022-10-12T10:57:46.618Z,16.05
2022-10-12T11:00:38.078Z,15.40
2022-10-12T11:03:28.973Z,16.08
2022-10-12T11:06:22.667Z,15.60
2022-10-12T11:09:02.396Z,17.25
2022-10-12T11:11:29.731Z,19.92
2022-10-12T11:14:02.201Z,20.38
2022-10-12T11:16:38.859Z,19.65
2022-10-12T11:19:26.147Z,19.23
2022-10-12T11:21:56.711Z,18.83
2022-10-12T11:24:52.211Z,18.48
2022-10-12T11:27:35.004Z,17.75
2022-10-12T11:30:09.349Z,18.10
2022-10-12T11:32:40.914Z,18.75
2022-10-12T11:35:10.184Z,18.38
2022-10-12T11:37:43.974Z,18.25
2022-10-12T11:40:47.865Z,18.80
2022-10-12T11:43:16.591Z,18.75
2022-10-12T11:45:47.235Z,16.75
2022-10-12T11:48:24.784Z,15.75
2022-10-12T11:50:54.264Z,16.15
2022-10-12T11:53:46.442Z,15.18
2022-10-12T11:56:37.683Z,14.95
2022-10-12T11:59:10.788Z,15.60
2022-10-12T12:02:01.084Z,16.20
2022-10-12T12:04:42.170Z,16.35
2022-10-12T12:07:35.275Z,15.95
2022-10-12T12:10:24.887Z,16.83
2022-10-12T12:13:12.890Z,17.05
2022-10-12T12:15:52.733Z,18.55
2022-10-12T12:18:24.503Z,17.08
2022-10-12T12:21:02.300Z,17.23
2022-10-12T12:23:35.726Z,17.55
2022-10-12T12:26:16.506Z,16.70
2022-10-12T12:28:48.861Z,15.98
2022-10-12T12:31:22.361Z,15.55
2022-10-12T12:33:52.065Z,17.00
2022-10-12T12:36:35.000Z,16.95
2022-10-12T12:39:03.017Z,16.58
2022-10-12T12:42:01.864Z,17.33
2022-10-12T12:44:40.452Z,17.48
2022-10-12T12:47:33.067Z,17.27
2022-10-12T12:50:23.134Z,16.77
2022-10-12T12:52:50.409Z,16.70
2022-10-12T12:55:42.832Z,15.60
2022-10-12T12:58:31.830Z,15.13
2022-10-12T13:01:17.781Z,16.55
2022-10-12T13:03:51.025Z,16.42
2022-10-12T13:06:50.715Z,16.05
2022-10-12T13:09:36.520Z,16.25
2022-10-12T13:12:12.479Z,16.25
2022-10-12T13:15:11.578Z,15.35
2022-10-12T13:17:51.182Z,16.27
2022-10-12T13:20:29.348Z,15.13
2022-10-12T13:22:57.870Z,16.13
2022-10-12T13:25:29.834Z,15.80
2022-10-12T13:27:57.252Z,17.15
2022-10-12T13:30:33.139Z,16.50
2022-10-12T13:33:11.338Z,16.75
2022-10-12T13:35:45.454Z,16.05
2022-10-12T13:38:15.706Z,16.00
2022-10-12T13:40:44.944Z,17.00
2022-10-12T13:43:31.510Z,16.23
2022-10-12T13:45:59.206Z,17.42
2022-10-12T13:48:54.036Z,16.27
2022-10-12T13:51:25.544Z,16.58
2022-10-12T13:53:53.495Z,16.40
2022-10-12T13:56:23.304Z,17.10
2022-10-12T13:58:53.628Z,16.35
2022-10-12T14:01:20.983Z,16.52
2022-10-12T14:03:48.367Z,16.27
2022-10-12T14:06:35.526Z,15.30
2022-10-12T14:09:10.398Z,16.20
2022-10-12T14:11:37.813Z,15.02
2022-10-12T14:14:05.110Z,16.15
2022-10-12T14:16:32.605Z,16.40
2022-10-12T14:19:21.351Z,15.27
2022-10-12T14:21:48.990Z,16.35
2022-10-12T14:24:18.144Z,16.15
2022-10-12T14:26:52.109Z,16.23
2022-10-12T14:29:36.197Z,16.38
2022-10-12T14:32:05.169Z,15.60
2022-10-12T14:34:40.960Z,15.52
2022-10-12T14:37:17.538Z,16.70
2022-10-12T14:39:46.338Z,15.73
2022-10-12T14:42:28.792Z,16.27
2022-10-12T14:44:56.436Z,17.08
2022-10-12T14:47:42.919Z,17.17
2022-10-12T14:50:12.136Z,17.38
2022-10-12T14:52:43.855Z,16.75
2022-10-12T14:55:15.923Z,17.55
2022-10-12T14:57:43.861Z,17.27
2022-10-12T15:00:21.083Z,17.05
2022-10-12T15:02:48.889Z,18.15
2022-10-12T15:05:17.785Z,19.00
2022-10-12T15:07:46.941Z,19.38
2022-10-12T15:10:15.005Z,20.65
2022-10-12T15:12:43.691Z,19.80
2022-10-12T15:15:28.964Z,19.20
2022-10-12T15:17:57.060Z,19.50
2022-10-12T15:20:25.586Z,19.27
2022-10-12T15:22:52.965Z,20.00
2022-10-12T15:25:33.112Z,20.83
2022-10-12T15:28:00.854Z,19.48
2022-10-12T15:30:28.159Z,19.52
2022-10-12T15:32:55.496Z,20.00
2022-10-12T15:35:24.996Z,20.23
2022-10-12T15:37:52.628Z,20.45
2022-10-12T15:40:20.416Z,19.27
2022-10-12T15:42:47.790Z,18.67
2022-10-12T15:45:18.557Z,17.85
2022-10-12T15:47:46.916Z,18.17
2022-10-12T15:50:14.701Z,20.13
2022-10-12T15:52:42.148Z,20.00
2022-10-12T15:55:15.976Z,19.80
2022-10-12T15:57:43.381Z,17.55
2022-10-12T16:00:11.587Z,17.85
2022-10-12T16:02:42.452Z,18.70
2022-10-12T16:05:21.968Z,19.55
2022-10-12T16:07:49.462Z,17.88
2022-10-12T16:10:17.814Z,20.23
2022-10-12T16:12:46.912Z,18.75
2022-10-12T16:15:16.053Z,18.55
2022-10-12T16:17:43.441Z,18.20
2022-10-12T16:20:11.362Z,17.67
2022-10-12T16:22:42.552Z,18.50
2022-10-12T16:25:10.839Z,20.77
2022-10-12T16:27:38.349Z,19.33
2022-10-12T16:30:09.695Z,19.73
2022-10-12T16:32:37.142Z,20.83
2022-10-12T16:35:05.300Z,18.67
2022-10-12T16:37:33.182Z,19.25
2022-10-12T16:40:01.364Z,20.23
2022-10-12T16:42:29.133Z,19.73
2022-10-12T16:44:56.483Z,19.45
2022-10-12T16:47:25.422Z,21.25
2022-10-12T16:49:53.894Z,19.77
2022-10-12T16:52:25.050Z,22.83
2022-10-12T16:54:53.089Z,19.05
2022-10-12T16:57:20.818Z,19.08
2022-10-12T16:59:48.607Z,19.60
2022-10-12T17:02:17.020Z,18.85
2022-10-12T17:04:45.706Z,18.65
2022-10-12T17:07:13.430Z,18.58
2022-10-12T17:09:40.773Z,18.00
2022-10-12T17:12:08.252Z,19.88
2022-10-12T17:14:35.695Z,19.30
2022-10-12T17:17:03.120Z,18.58
2022-10-12T17:19:32.436Z,18.48
2022-10-12T17:22:01.012Z,18.50
2022-10-12T17:24:29.073Z,17.50
2022-10-12T17:26:56.460Z,18.30
2022-10-12T17:29:24.691Z,18.45
2022-10-12T17:31:52.442Z,18.65
2022-10-12T17:34:29.442Z,19.30
2022-10-12T17:36:57.859Z,18.05
2022-10-12T17:39:25.839Z,16.85
2022-10-12T17:41:53.215Z,18.73
2022-10-12T17:44:20.572Z,17.15
2022-10-12T17:46:48.056Z,18.30
2022-10-12T17:49:24.527Z,18.73
2022-10-12T17:51:52.688Z,17.77
2022-10-12T17:54:20.514Z,19.02
2022-10-12T17:56:47.896Z,17.70
2022-10-12T17:59:16.789Z,17.90
2022-10-12T18:01:44.233Z,16.50
2022-10-12T18:04:12.083Z,17.65
2022-10-12T18:06:39.548Z,17.38
2022-10-12T18:09:07.219Z,18.50
2022-10-12T18:11:34.896Z,17.23
2022-10-12T18:14:02.276Z,16.42
2022-10-12T18:16:31.292Z,17.05
2022-10-12T18:18:59.258Z,18.10
2022-10-12T18:21:27.434Z,19.17
2022-10-12T18:23:56.955Z,17.23
2022-10-12T18:26:24.989Z,17.75
2022-10-12T18:28:53.353Z,17.60
2022-10-12T18:31:25.338Z,17.45
2022-10-12T18:33:53.181Z,16.85
2022-10-12T18:36:21.301Z,17.00
2022-10-12T18:38:48.736Z,18.55
2022-10-12T18:41:17.864Z,18.27
2022-10-12T18:43:45.235Z,20.17
2022-10-12T18:46:13.736Z,18.83
2022-10-12T18:48:41.294Z,17.95
2022-10-12T18:51:21.816Z,19.00
2022-10-12T18:53:49.280Z,19.65
2022-10-12T18:56:16.887Z,17.77
2022-10-12T18:58:44.232Z,18.77
2022-10-12T19:01:13.347Z,17.35
2022-10-12T19:03:40.911Z,18.40
2022-10-12T19:06:10.865Z,18.02
2022-10-12T19:08:38.530Z,19.15
2022-10-12T19:11:08.052Z,19.42
2022-10-12T19:13:36.716Z,19.25
2022-10-12T19:16:15.214Z,18.77
2022-10-12T19:18:42.602Z,18.13
2022-10-12T19:21:14.587Z,19.15
2022-10-12T19:23:42.119Z,19.00
2022-10-12T19:26:17.141Z,19.90
2022-10-12T19:28:44.774Z,21.23
2022-10-12T19:31:20.594Z,18.88
2022-10-12T19:33:48.021Z,18.27
2022-10-12T19:36:16.416Z,19.55
2022-10-12T19:38:45.849Z,18.65
2022-10-12T19:41:13.352Z,18.25
2022-10-12T19:43:43.019Z,19.30
2022-10-12T19:46:11.102Z,18.83
2022-10-12T19:48:38.691Z,20.55
2022-10-12T19:51:08.023Z,21.08
2022-10-12T19:53:35.418Z,21.20
2022-10-12T19:56:04.529Z,20.88
2022-10-12T19:58:31.898Z,20.70
2022-10-12T20:01:09.463Z,21.00
2022-10-12T20:03:38.561Z,20.95
2022-10-12T20:06:09.122Z,20.38
2022-10-12T20:08:37.127Z,20.83
2022-10-12T20:11:04.524Z,21.88
2022-10-12T20:13:31.890Z,21.08
2022-10-12T20:15:59.314Z,20.38
2022-10-12T20:18:26.914Z,19.88
2022-10-12T20:20:54.463Z,20.85
2022-10-12T20:23:22.012Z,19.70
2022-10-12T20:25:53.937Z,19.88
2022-10-12T20:28:21.885Z,21.23
2022-10-12T20:30:49.290Z,20.63
2022-10-12T20:33:16.665Z,19.65
2022-10-12T20:35:48.367Z,20.92
2022-10-12T20:38:16.877Z,20.55
2022-10-12T20:40:45.878Z,20.25
2022-10-12T20:43:14.288Z,21.02
2022-10-12T20:45:41.937Z,20.80
2022-10-12T20:48:09.406Z,19.80
2022-10-12T20:50:37.402Z,21.38
2022-10-12T20:53:04.729Z,21.45
2022-10-12T20:55:32.056Z,21.80
2022-10-12T20:57:59.467Z,21.33
2022-10-12T21:00:27.008Z,22.15
2022-10-12T21:02:54.405Z,22.13
2022-10-12T21:05:21.695Z,23.23
2022-10-12T21:07:49.044Z,23.27
2022-10-12T21:10:16.403Z,23.33
2022-10-12T21:12:43.775Z,23.90
2022-10-12T21:15:11.284Z,23.02
2022-10-12T21:17:38.601Z,22.15
2022-10-12T21:20:06.370Z,23.10
2022-10-12T21:22:33.699Z,23.30
2022-10-12T21:25:01.002Z,25.40
2022-10-12T21:27:28.340Z,23.85
2022-10-12T21:29:55.608Z,24.52
2022-10-12T21:32:22.967Z,22.75
2022-10-12T21:34:50.562Z,23.52
2022-10-12T21:37:17.966Z,20.83
2022-10-12T21:39:45.467Z,24.42
2022-10-12T21:42:12.771Z,22.90
2022-10-12T21:44:40.194Z,21.85
2022-10-12T21:47:07.550Z,22.90
2022-10-12T21:49:34.872Z,21.83
2022-10-12T21:52:02.162Z,21.67
2022-10-12T21:54:29.547Z,23.08
2022-10-12T21:56:56.818Z,22.48
2022-10-12T21:59:26.356Z,23.00
2022-10-12T22:01:53.822Z,23.17
2022-10-12T22:04:21.232Z,22.73
2022-10-12T22:06:48.620Z,21.90
2022-10-12T22:09:16.901Z,22.00
2022-10-12T22:11:44.362Z,22.40
2022-10-12T22:14:13.602Z,20.98
2022-10-12T22:16:40.914Z,22.13
2022-10-12T22:19:08.534Z,21.52
2022-10-12T22:21:36.368Z,22.20
2022-10-12T22:24:03.824Z,21.75
2022-10-12T22:26:32.505Z,21.25
2022-10-12T22:29:01.992Z,22.08
2022-10-12T22:31:29.348Z,22.08
2022-10-12T22:33:56.691Z,21.48
2022-10-12T22:36:24.013Z,23.92
2022-10-12T22:38:51.314Z,22.38
2022-10-12T22:41:19.933Z,22.70
2022-10-12T22:43:52.022Z,22.63
2022-10-12T22:46:19.698Z,23.35
2022-10-12T22:48:47.074Z,23.05
2022-10-12T22:51:32.575Z,21.00
2022-10-12T22:53:59.986Z,23.08
2022-10-12T22:56:27.542Z,21.58
2022-10-12T22:58:55.867Z,20.58
2022-10-12T23:01:23.433Z,22.67
2022-10-12T23:03:50.785Z,21.17
2022-10-12T23:06:18.489Z,21.17
2022-10-12T23:08:46.213Z,21.73
2022-10-12T23:11:18.790Z,22.50
2022-10-12T23:13:46.241Z,22.85
2022-10-12T23:16:15.939Z,24.70
2022-10-12T23:18:43.253Z,24.00
2022-10-12T23:21:12.496Z,23.92
2022-10-12T23:23:40.034Z,24.65
2022-10-12T23:26:17.885Z,24.42
2022-10-12T23:28:45.661Z,23.42
2022-10-12T23:31:17.844Z,23.60
2022-10-12T23:33:45.328Z,25.13
2022-10-12T23:36:14.400Z,24.00
2022-10-12T23:38:42.246Z,26.17
2022-10-12T23:41:09.866Z,25.80
2022-10-12T23:43:37.216Z,22.90
2022-10-12T23:46:05.233Z,24.17
2022-10-12T23:48:32.828Z,23.63
2022-10-12T23:51:00.388Z,23.05
2022-10-12T23:53:27.738Z,23.77
2022-10-12T23:55:55.172Z,23.83
2022-10-12T23:58:22.493Z,25.27
